sensor_id;sensor_type;location;lat;lon;timestamp;temperature;humidity
27779;DHT22;30234;48.090;11.464;2022-12-07T00:01:58;2.80;99.90
27779;DHT22;30234;48.090;11.464;2022-12-07T00:05:59;2.80;99.90
27779;DHT22;30234;48.090;11.464;2022-12-07T00:10:00;2.80;99.90
27779;DHT22;30234;48.090;11.464;2022-12-07T00:14:04;2.80;99.90
27779;DHT22;30234;48.090;11.464;2022-12-07T00:18:06;2.80;99.90
27779;DHT22;30234;48.090;11.464;2022-12-07T00:22:07;2.90;99.90
27779;DHT22;30234;48.090;11.464;2022-12-07T00:26:10;2.80;99.90
27779;DHT22;30234;48.090;11.464;2022-12-07T00:30:14;2.80;99.90
27779;DHT22;30234;48.090;11.464;2022-12-07T00:34:18;2.70;99.90
27779;DHT22;30234;48.090;11.464;2022-12-07T00:38:19;2.70;99.90
27779;DHT22;30234;48.090;11.464;2022-12-07T00:42:20;2.60;99.90
27779;DHT22;30234;48.090;11.464;2022-12-07T00:46:21;2.70;99.90
27779;DHT22;30234;48.090;11.464;2022-12-07T00:50:23;2.60;99.90
27779;DHT22;30234;48.090;11.464;2022-12-07T00:54:23;2.50;99.90
27779;DHT22;30234;48.090;11.464;2022-12-07T00:58:24;2.50;99.90
27779;DHT22;30234;48.090;11.464;2022-12-07T01:02:25;2.40;99.90
27779;DHT22;30234;48.090;11.464;2022-12-07T01:06:26;2.40;99.90
27779;DHT22;30234;48.090;11.464;2022-12-07T01:10:27;2.40;99.90
27779;DHT22;30234;48.090;11.464;2022-12-07T01:14:28;2.40;99.90
27779;DHT22;30234;48.090;11.464;2022-12-07T01:18:31;2.40;99.90
27779;DHT22;30234;48.090;11.464;2022-12-07T01:22:38;2.40;99.90
27779;DHT22;30234;48.090;11.464;2022-12-07T01:26:39;2.40;99.90
27779;DHT22;30234;48.090;11.464;2022-12-07T01:30:40;2.40;99.90
27779;DHT22;30234;48.090;11.464;2022-12-07T01:34:41;2.40;99.90
27779;DHT22;30234;48.090;11.464;2022-12-07T01:38:42;2.40;99.90
27779;DHT22;30234;48.090;11.464;2022-12-07T01:42:43;2.50;99.90
27779;DHT22;30234;48.090;11.464;2022-12-07T01:47:03;2.40;99.90
27779;DHT22;30234;48.090;11.464;2022-12-07T01:51:09;2.50;99.90
27779;DHT22;30234;48.090;11.464;2022-12-07T01:55:13;2.60;99.90
27779;DHT22;30234;48.090;11.464;2022-12-07T01:59:17;2.60;99.90
27779;DHT22;30234;48.090;11.464;2022-12-07T02:03:24;2.60;99.90
27779;DHT22;30234;48.090;11.464;2022-12-07T02:07:28;2.60;99.90
27779;DHT22;30234;48.090;11.464;2022-12-07T02:11:29;2.60;99.90
27779;DHT22;30234;48.090;11.464;2022-12-07T02:20:44;2.50;99.90
27779;DHT22;30234;48.090;11.464;2022-12-07T02:30:03;2.60;99.90
27779;DHT22;30234;48.090;11.464;2022-12-07T02:34:18;2.50;99.90
27779;DHT22;30234;48.090;11.464;2022-12-07T02:38:35;2.40;99.90
27779;DHT22;30234;48.090;11.464;2022-12-07T02:42:49;2.40;99.90
27779;DHT22;30234;48.090;11.464;2022-12-07T02:47:18;2.50;99.90
27779;DHT22;30234;48.090;11.464;2022-12-07T02:51:21;2.50;99.90
27779;DHT22;30234;48.090;11.464;2022-12-07T02:55:28;2.40;99.90
27779;DHT22;30234;48.090;11.464;2022-12-07T03:00:05;2.30;99.90
27779;DHT22;30234;48.090;11.464;2022-12-07T03:09:29;2.20;99.90
27779;DHT22;30234;48.090;11.464;2022-12-07T03:18:04;2.30;99.90
27779;DHT22;30234;48.090;11.464;2022-12-07T03:22:08;2.20;99.90
27779;DHT22;30234;48.090;11.464;2022-12-07T03:26:12;2.20;99.90
27779;DHT22;30234;48.090;11.464;2022-12-07T03:30:20;2.30;99.90
27779;DHT22;30234;48.090;11.464;2022-12-07T03:35:10;2.30;99.90
27779;DHT22;30234;48.090;11.464;2022-12-07T03:39:23;2.30;99.90
27779;DHT22;30234;48.090;11.464;2022-12-07T03:43:29;2.20;99.90
27779;DHT22;30234;48.090;11.464;2022-12-07T03:56:12;2.20;99.90
27779;DHT22;30234;48.090;11.464;2022-12-07T04:00:14;2.20;99.90
27779;DHT22;30234;48.090;11.464;2022-12-07T04:04:15;2.20;99.90
27779;DHT22;30234;48.090;11.464;2022-12-07T04:08:16;2.20;99.90
27779;DHT22;30234;48.090;11.464;2022-12-07T04:12:17;2.20;99.90
27779;DHT22;30234;48.090;11.464;2022-12-07T04:16:18;2.40;99.90
27779;DHT22;30234;48.090;11.464;2022-12-07T04:20:19;2.40;99.90
27779;DHT22;30234;48.090;11.464;2022-12-07T04:24:20;2.30;99.90
27779;DHT22;30234;48.090;11.464;2022-12-07T04:28:21;2.30;99.90
27779;DHT22;30234;48.090;11.464;2022-12-07T04:32:22;2.30;99.90
27779;DHT22;30234;48.090;11.464;2022-12-07T04:36:23;2.20;99.90
27779;DHT22;30234;48.090;11.464;2022-12-07T04:40:24;2.20;99.90
27779;DHT22;30234;48.090;11.464;2022-12-07T04:44:26;2.20;99.90
27779;DHT22;30234;48.090;11.464;2022-12-07T04:48:28;2.20;99.90
27779;DHT22;30234;48.090;11.464;2022-12-07T04:52:28;2.20;99.90
27779;DHT22;30234;48.090;11.464;2022-12-07T04:56:29;2.10;99.90
27779;DHT22;30234;48.090;11.464;2022-12-07T05:00:30;2.10;99.90
27779;DHT22;30234;48.090;11.464;2022-12-07T05:04:31;2.20;99.90
27779;DHT22;30234;48.090;11.464;2022-12-07T05:08:32;2.20;99.90
27779;DHT22;30234;48.090;11.464;2022-12-07T05:12:33;2.10;99.90
27779;DHT22;30234;48.090;11.464;2022-12-07T05:16:35;2.00;99.90
27779;DHT22;30234;48.090;11.464;2022-12-07T05:20:35;1.90;99.90
27779;DHT22;30234;48.090;11.464;2022-12-07T05:24:36;1.90;99.90
27779;DHT22;30234;48.090;11.464;2022-12-07T05:28:37;1.90;99.90
27779;DHT22;30234;48.090;11.464;2022-12-07T05:32:38;1.80;99.90
27779;DHT22;30234;48.090;11.464;2022-12-07T05:36:39;1.90;99.90
27779;DHT22;30234;48.090;11.464;2022-12-07T05:40:39;1.80;99.90
27779;DHT22;30234;48.090;11.464;2022-12-07T05:44:41;1.80;99.90
27779;DHT22;30234;48.090;11.464;2022-12-07T05:48:45;1.80;99.90
27779;DHT22;30234;48.090;11.464;2022-12-07T05:52:46;1.80;99.90
27779;DHT22;30234;48.090;11.464;2022-12-07T05:56:47;1.70;99.90
27779;DHT22;30234;48.090;11.464;2022-12-07T06:00:47;1.70;99.90
27779;DHT22;30234;48.090;11.464;2022-12-07T06:04:48;1.80;99.90
27779;DHT22;30234;48.090;11.464;2022-12-07T06:08:49;1.80;99.90
27779;DHT22;30234;48.090;11.464;2022-12-07T06:12:50;1.80;99.90
27779;DHT22;30234;48.090;11.464;2022-12-07T06:16:50;1.70;99.90
27779;DHT22;30234;48.090;11.464;2022-12-07T06:20:51;1.80;99.90
27779;DHT22;30234;48.090;11.464;2022-12-07T06:24:52;1.90;99.90
27779;DHT22;30234;48.090;11.464;2022-12-07T06:28:53;1.80;99.90
27779;DHT22;30234;48.090;11.464;2022-12-07T06:32:55;1.80;99.90
27779;DHT22;30234;48.090;11.464;2022-12-07T06:36:56;1.80;99.90
27779;DHT22;30234;48.090;11.464;2022-12-07T06:40:56;1.90;99.90
27779;DHT22;30234;48.090;11.464;2022-12-07T06:44:57;1.80;99.90
27779;DHT22;30234;48.090;11.464;2022-12-07T06:48:58;1.80;99.90
27779;DHT22;30234;48.090;11.464;2022-12-07T06:52:59;1.70;99.90
27779;DHT22;30234;48.090;11.464;2022-12-07T06:56:59;1.70;99.90
27779;DHT22;30234;48.090;11.464;2022-12-07T07:01:00;1.70;99.90
27779;DHT22;30234;48.090;11.464;2022-12-07T07:05:02;1.80;99.90
27779;DHT22;30234;48.090;11.464;2022-12-07T07:09:03;1.80;99.90
27779;DHT22;30234;48.090;11.464;2022-12-07T07:13:04;1.80;99.90
27779;DHT22;30234;48.090;11.464;2022-12-07T07:17:05;1.80;99.90
27779;DHT22;30234;48.090;11.464;2022-12-07T07:21:05;2.10;99.90
27779;DHT22;30234;48.090;11.464;2022-12-07T07:25:06;1.80;99.90
27779;DHT22;30234;48.090;11.464;2022-12-07T07:29:07;1.80;99.90
27779;DHT22;30234;48.090;11.464;2022-12-07T07:33:09;1.80;99.90
27779;DHT22;30234;48.090;11.464;2022-12-07T07:37:10;1.80;99.90
27779;DHT22;30234;48.090;11.464;2022-12-07T07:41:12;1.90;99.90
27779;DHT22;30234;48.090;11.464;2022-12-07T07:45:13;1.90;99.90
27779;DHT22;30234;48.090;11.464;2022-12-07T07:49:14;1.90;99.90
27779;DHT22;30234;48.090;11.464;2022-12-07T07:53:15;1.90;99.90
27779;DHT22;30234;48.090;11.464;2022-12-07T07:57:17;2.00;99.90
27779;DHT22;30234;48.090;11.464;2022-12-07T08:01:18;2.00;99.90
27779;DHT22;30234;48.090;11.464;2022-12-07T08:05:19;2.00;99.90
27779;DHT22;30234;48.090;11.464;2022-12-07T08:09:20;2.10;99.90
27779;DHT22;30234;48.090;11.464;2022-12-07T08:13:21;2.20;99.90
27779;DHT22;30234;48.090;11.464;2022-12-07T08:17:22;2.30;99.90
27779;DHT22;30234;48.090;11.464;2022-12-07T08:21:23;2.40;99.90
27779;DHT22;30234;48.090;11.464;2022-12-07T08:25:24;2.90;99.90
27779;DHT22;30234;48.090;11.464;2022-12-07T08:29:25;2.40;99.90
27779;DHT22;30234;48.090;11.464;2022-12-07T08:33:26;2.50;99.90
27779;DHT22;30234;48.090;11.464;2022-12-07T08:37:26;2.60;99.90
27779;DHT22;30234;48.090;11.464;2022-12-07T08:41:27;2.70;99.90
27779;DHT22;30234;48.090;11.464;2022-12-07T08:45:28;2.70;99.90
27779;DHT22;30234;48.090;11.464;2022-12-07T08:49:41;2.70;99.90
27779;DHT22;30234;48.090;11.464;2022-12-07T08:53:45;2.70;99.90
27779;DHT22;30234;48.090;11.464;2022-12-07T08:57:46;2.80;99.90
27779;DHT22;30234;48.090;11.464;2022-12-07T09:01:47;2.90;99.90
27779;DHT22;30234;48.090;11.464;2022-12-07T09:05:47;3.10;99.90
27779;DHT22;30234;48.090;11.464;2022-12-07T09:09:48;3.10;99.90
27779;DHT22;30234;48.090;11.464;2022-12-07T09:13:49;3.10;99.90
27779;DHT22;30234;48.090;11.464;2022-12-07T09:17:50;3.30;99.90
27779;DHT22;30234;48.090;11.464;2022-12-07T09:21:51;3.40;99.90
27779;DHT22;30234;48.090;11.464;2022-12-07T09:25:52;3.50;99.90
27779;DHT22;30234;48.090;11.464;2022-12-07T09:29:53;3.70;99.90
27779;DHT22;30234;48.090;11.464;2022-12-07T09:33:55;3.80;99.90
27779;DHT22;30234;48.090;11.464;2022-12-07T09:37:57;4.10;99.90
27779;DHT22;30234;48.090;11.464;2022-12-07T09:41:59;4.20;99.90
27779;DHT22;30234;48.090;11.464;2022-12-07T09:46:04;4.30;99.90
27779;DHT22;30234;48.090;11.464;2022-12-07T09:50:15;4.60;99.90
27779;DHT22;30234;48.090;11.464;2022-12-07T09:54:17;4.90;99.90
27779;DHT22;30234;48.090;11.464;2022-12-07T09:58:26;5.10;99.90
27779;DHT22;30234;48.090;11.464;2022-12-07T10:02:39;5.20;99.90
27779;DHT22;30234;48.090;11.464;2022-12-07T10:06:56;5.40;99.90
27779;DHT22;30234;48.090;11.464;2022-12-07T10:10:57;5.60;99.90
27779;DHT22;30234;48.090;11.464;2022-12-07T10:15:04;5.70;99.90
27779;DHT22;30234;48.090;11.464;2022-12-07T10:23:31;5.60;99.90
27779;DHT22;30234;48.090;11.464;2022-12-07T10:27:32;5.70;99.90
27779;DHT22;30234;48.090;11.464;2022-12-07T10:31:38;6.00;99.90
27779;DHT22;30234;48.090;11.464;2022-12-07T10:35:43;6.20;99.90
27779;DHT22;30234;48.090;11.464;2022-12-07T10:39:48;6.20;99.90
27779;DHT22;30234;48.090;11.464;2022-12-07T10:43:52;6.80;99.90
27779;DHT22;30234;48.090;11.464;2022-12-07T10:48:23;7.20;99.90
27779;DHT22;30234;48.090;11.464;2022-12-07T10:52:45;7.20;99.90
27779;DHT22;30234;48.090;11.464;2022-12-07T11:10:39;7.30;99.90
27779;DHT22;30234;48.090;11.464;2022-12-07T11:24:14;8.90;99.90
27779;DHT22;30234;48.090;11.464;2022-12-07T11:36:48;9.00;99.90
27779;DHT22;30234;48.090;11.464;2022-12-07T11:40:56;9.80;99.90
27779;DHT22;30234;48.090;11.464;2022-12-07T11:45:16;10.70;99.90
27779;DHT22;30234;48.090;11.464;2022-12-07T11:53:44;10.10;99.90
27779;DHT22;30234;48.090;11.464;2022-12-07T11:57:53;10.60;99.90
27779;DHT22;30234;48.090;11.464;2022-12-07T12:02:11;10.30;99.90
27779;DHT22;30234;48.090;11.464;2022-12-07T12:06:14;9.90;99.90
27779;DHT22;30234;48.090;11.464;2022-12-07T12:10:20;9.70;99.90
27779;DHT22;30234;48.090;11.464;2022-12-07T12:27:36;10.40;99.90
27779;DHT22;30234;48.090;11.464;2022-12-07T12:31:39;9.60;99.90
27779;DHT22;30234;48.090;11.464;2022-12-07T12:35:42;8.80;99.90
27779;DHT22;30234;48.090;11.464;2022-12-07T12:48:35;7.00;99.90
27779;DHT22;30234;48.090;11.464;2022-12-07T12:56:43;6.10;99.90
27779;DHT22;30234;48.090;11.464;2022-12-07T13:05:31;5.90;99.90
27779;DHT22;30234;48.090;11.464;2022-12-07T13:09:34;5.80;99.90
27779;DHT22;30234;48.090;11.464;2022-12-07T13:13:36;6.40;99.90
27779;DHT22;30234;48.090;11.464;2022-12-07T13:21:55;7.60;99.90
27779;DHT22;30234;48.090;11.464;2022-12-07T13:26:16;8.20;99.90
27779;DHT22;30234;48.090;11.464;2022-12-07T13:30:23;9.70;99.90
27779;DHT22;30234;48.090;11.464;2022-12-07T13:34:41;10.50;99.90
27779;DHT22;30234;48.090;11.464;2022-12-07T13:38:49;10.30;99.90
27779;DHT22;30234;48.090;11.464;2022-12-07T13:43:00;9.90;99.90
27779;DHT22;30234;48.090;11.464;2022-12-07T13:51:35;8.10;99.90
27779;DHT22;30234;48.090;11.464;2022-12-07T13:55:44;7.40;99.90
27779;DHT22;30234;48.090;11.464;2022-12-07T13:59:46;6.70;99.90
27779;DHT22;30234;48.090;11.464;2022-12-07T14:03:47;6.70;99.90
27779;DHT22;30234;48.090;11.464;2022-12-07T14:07:53;7.30;99.90
27779;DHT22;30234;48.090;11.464;2022-12-07T14:11:57;7.70;99.90
27779;DHT22;30234;48.090;11.464;2022-12-07T14:15:59;7.80;99.90
27779;DHT22;30234;48.090;11.464;2022-12-07T14:20:03;7.30;99.90
27779;DHT22;30234;48.090;11.464;2022-12-07T14:24:09;6.60;99.90
27779;DHT22;30234;48.090;11.464;2022-12-07T14:28:29;6.60;99.90
27779;DHT22;30234;48.090;11.464;2022-12-07T14:32:31;7.00;99.90
27779;DHT22;30234;48.090;11.464;2022-12-07T14:36:34;6.60;99.90
27779;DHT22;30234;48.090;11.464;2022-12-07T14:40:35;5.70;99.90
27779;DHT22;30234;48.090;11.464;2022-12-07T14:44:36;5.00;99.90
27779;DHT22;30234;48.090;11.464;2022-12-07T14:48:36;4.30;99.90
27779;DHT22;30234;48.090;11.464;2022-12-07T14:52:38;3.50;99.90
27779;DHT22;30234;48.090;11.464;2022-12-07T14:56:39;3.10;99.90
27779;DHT22;30234;48.090;11.464;2022-12-07T15:00:40;2.60;99.90
27779;DHT22;30234;48.090;11.464;2022-12-07T15:04:41;2.30;99.90
27779;DHT22;30234;48.090;11.464;2022-12-07T15:08:42;2.00;99.90
27779;DHT22;30234;48.090;11.464;2022-12-07T15:12:44;1.80;99.90
27779;DHT22;30234;48.090;11.464;2022-12-07T15:16:46;1.50;99.90
27779;DHT22;30234;48.090;11.464;2022-12-07T15:20:46;1.20;99.90
27779;DHT22;30234;48.090;11.464;2022-12-07T15:24:47;0.90;99.90
27779;DHT22;30234;48.090;11.464;2022-12-07T15:28:48;0.70;99.90
27779;DHT22;30234;48.090;11.464;2022-12-07T15:32:50;0.60;99.90
27779;DHT22;30234;48.090;11.464;2022-12-07T15:36:51;0.50;99.90
27779;DHT22;30234;48.090;11.464;2022-12-07T15:40:52;0.40;99.90
27779;DHT22;30234;48.090;11.464;2022-12-07T15:44:52;0.40;99.90
27779;DHT22;30234;48.090;11.464;2022-12-07T15:49:14;0.30;99.90
27779;DHT22;30234;48.090;11.464;2022-12-07T15:53:17;0.20;99.90
27779;DHT22;30234;48.090;11.464;2022-12-07T15:57:18;-0.10;99.90
27779;DHT22;30234;48.090;11.464;2022-12-07T16:01:19;-0.30;99.90
27779;DHT22;30234;48.090;11.464;2022-12-07T16:05:20;-0.40;99.90
27779;DHT22;30234;48.090;11.464;2022-12-07T16:09:21;-0.50;99.90
27779;DHT22;30234;48.090;11.464;2022-12-07T16:13:21;-0.70;99.90
27779;DHT22;30234;48.090;11.464;2022-12-07T16:17:22;-0.70;99.90
27779;DHT22;30234;48.090;11.464;2022-12-07T16:21:23;-0.70;99.90
27779;DHT22;30234;48.090;11.464;2022-12-07T16:25:24;-0.80;99.90
27779;DHT22;30234;48.090;11.464;2022-12-07T16:29:24;-0.80;99.90
27779;DHT22;30234;48.090;11.464;2022-12-07T16:33:25;-0.70;99.90
27779;DHT22;30234;48.090;11.464;2022-12-07T16:37:26;-0.70;99.90
27779;DHT22;30234;48.090;11.464;2022-12-07T16:41:27;-0.60;99.90
27779;DHT22;30234;48.090;11.464;2022-12-07T16:45:27;-0.50;99.90
27779;DHT22;30234;48.090;11.464;2022-12-07T16:49:28;-0.60;99.90
27779;DHT22;30234;48.090;11.464;2022-12-07T16:53:29;-0.60;99.90
27779;DHT22;30234;48.090;11.464;2022-12-07T16:57:30;-0.80;99.90
27779;DHT22;30234;48.090;11.464;2022-12-07T17:01:31;-0.90;99.90
27779;DHT22;30234;48.090;11.464;2022-12-07T17:05:32;-0.80;99.90
27779;DHT22;30234;48.090;11.464;2022-12-07T17:09:33;-0.70;99.90
27779;DHT22;30234;48.090;11.464;2022-12-07T17:13:35;-0.30;99.90
27779;DHT22;30234;48.090;11.464;2022-12-07T17:17:56;-0.20;99.90
27779;DHT22;30234;48.090;11.464;2022-12-07T17:21:58;-0.10;99.90
27779;DHT22;30234;48.090;11.464;2022-12-07T17:26:07;0.10;99.90
27779;DHT22;30234;48.090;11.464;2022-12-07T17:30:09;0.10;99.90
27779;DHT22;30234;48.090;11.464;2022-12-07T17:34:12;0.10;99.90
27779;DHT22;30234;48.090;11.464;2022-12-07T17:38:13;0.30;99.90
27779;DHT22;30234;48.090;11.464;2022-12-07T17:42:14;0.40;99.90
27779;DHT22;30234;48.090;11.464;2022-12-07T17:46:34;0.30;99.90
27779;DHT22;30234;48.090;11.464;2022-12-07T17:50:35;0.30;99.90
27779;DHT22;30234;48.090;11.464;2022-12-07T17:54:56;0.30;99.90
27779;DHT22;30234;48.090;11.464;2022-12-07T17:58:56;0.30;99.90
27779;DHT22;30234;48.090;11.464;2022-12-07T18:02:57;0.40;99.90
27779;DHT22;30234;48.090;11.464;2022-12-07T18:06:58;0.30;99.90
27779;DHT22;30234;48.090;11.464;2022-12-07T18:10:59;0.20;99.90
27779;DHT22;30234;48.090;11.464;2022-12-07T18:15:00;0.20;99.90
27779;DHT22;30234;48.090;11.464;2022-12-07T18:19:03;0.20;99.90
27779;DHT22;30234;48.090;11.464;2022-12-07T18:23:04;0.50;99.90
27779;DHT22;30234;48.090;11.464;2022-12-07T18:27:05;0.40;99.90
27779;DHT22;30234;48.090;11.464;2022-12-07T18:31:06;0.50;99.90
27779;DHT22;30234;48.090;11.464;2022-12-07T18:35:07;0.50;99.90
27779;DHT22;30234;48.090;11.464;2022-12-07T18:39:08;0.60;99.90
27779;DHT22;30234;48.090;11.464;2022-12-07T18:43:10;0.60;99.90
27779;DHT22;30234;48.090;11.464;2022-12-07T18:47:10;0.80;99.90
27779;DHT22;30234;48.090;11.464;2022-12-07T18:51:13;0.80;99.90
27779;DHT22;30234;48.090;11.464;2022-12-07T18:55:14;0.80;99.90
27779;DHT22;30234;48.090;11.464;2022-12-07T18:59:15;0.80;99.90
27779;DHT22;30234;48.090;11.464;2022-12-07T19:03:34;0.90;99.90
27779;DHT22;30234;48.090;11.464;2022-12-07T19:07:35;1.00;99.90
27779;DHT22;30234;48.090;11.464;2022-12-07T19:11:36;1.10;99.90
27779;DHT22;30234;48.090;11.464;2022-12-07T19:15:49;0.90;99.90
27779;DHT22;30234;48.090;11.464;2022-12-07T19:19:49;0.80;99.90
27779;DHT22;30234;48.090;11.464;2022-12-07T19:23:50;0.80;99.90
27779;DHT22;30234;48.090;11.464;2022-12-07T19:27:51;0.90;99.90
27779;DHT22;30234;48.090;11.464;2022-12-07T19:31:52;1.00;99.90
27779;DHT22;30234;48.090;11.464;2022-12-07T19:35:53;0.90;99.90
27779;DHT22;30234;48.090;11.464;2022-12-07T19:39:54;0.80;99.90
27779;DHT22;30234;48.090;11.464;2022-12-07T19:43:56;0.80;99.90
27779;DHT22;30234;48.090;11.464;2022-12-07T19:47:57;0.80;99.90
27779;DHT22;30234;48.090;11.464;2022-12-07T19:52:00;0.90;99.90
27779;DHT22;30234;48.090;11.464;2022-12-07T19:56:03;0.70;99.90
27779;DHT22;30234;48.090;11.464;2022-12-07T20:00:05;0.70;99.90
27779;DHT22;30234;48.090;11.464;2022-12-07T20:04:09;0.70;99.90
27779;DHT22;30234;48.090;11.464;2022-12-07T20:08:12;0.70;99.90
27779;DHT22;30234;48.090;11.464;2022-12-07T20:12:12;0.70;99.90
27779;DHT22;30234;48.090;11.464;2022-12-07T20:16:32;0.60;99.90
27779;DHT22;30234;48.090;11.464;2022-12-07T20:20:33;0.70;99.90
27779;DHT22;30234;48.090;11.464;2022-12-07T20:24:34;0.70;99.90
27779;DHT22;30234;48.090;11.464;2022-12-07T20:28:35;0.70;99.90
27779;DHT22;30234;48.090;11.464;2022-12-07T20:32:36;0.70;99.90
27779;DHT22;30234;48.090;11.464;2022-12-07T20:36:37;0.70;99.90
27779;DHT22;30234;48.090;11.464;2022-12-07T20:40:38;0.80;99.90
27779;DHT22;30234;48.090;11.464;2022-12-07T20:44:44;0.90;99.90
27779;DHT22;30234;48.090;11.464;2022-12-07T20:48:45;0.60;99.90
27779;DHT22;30234;48.090;11.464;2022-12-07T20:52:46;0.60;99.90
27779;DHT22;30234;48.090;11.464;2022-12-07T20:56:46;0.60;99.90
27779;DHT22;30234;48.090;11.464;2022-12-07T21:00:47;0.60;99.90
27779;DHT22;30234;48.090;11.464;2022-12-07T21:04:48;0.70;99.90
27779;DHT22;30234;48.090;11.464;2022-12-07T21:08:51;0.70;99.90
27779;DHT22;30234;48.090;11.464;2022-12-07T21:12:54;0.60;99.90
27779;DHT22;30234;48.090;11.464;2022-12-07T21:16:55;0.60;99.90
27779;DHT22;30234;48.090;11.464;2022-12-07T21:21:00;0.80;99.90
27779;DHT22;30234;48.090;11.464;2022-12-07T21:25:02;0.80;99.90
27779;DHT22;30234;48.090;11.464;2022-12-07T21:29:06;0.80;99.90
27779;DHT22;30234;48.090;11.464;2022-12-07T21:33:07;0.80;99.90
27779;DHT22;30234;48.090;11.464;2022-12-07T21:37:08;0.90;99.90
27779;DHT22;30234;48.090;11.464;2022-12-07T21:41:20;0.90;99.90
27779;DHT22;30234;48.090;11.464;2022-12-07T21:45:22;0.90;99.90
27779;DHT22;30234;48.090;11.464;2022-12-07T21:49:23;1.00;99.90
27779;DHT22;30234;48.090;11.464;2022-12-07T21:53:24;1.00;99.90
27779;DHT22;30234;48.090;11.464;2022-12-07T21:57:25;1.00;99.90
27779;DHT22;30234;48.090;11.464;2022-12-07T22:01:28;1.00;99.90
27779;DHT22;30234;48.090;11.464;2022-12-07T22:05:30;0.90;99.90
27779;DHT22;30234;48.090;11.464;2022-12-07T22:09:30;0.90;99.90
27779;DHT22;30234;48.090;11.464;2022-12-07T22:13:32;1.00;99.90
27779;DHT22;30234;48.090;11.464;2022-12-07T22:17:51;1.00;99.90
27779;DHT22;30234;48.090;11.464;2022-12-07T22:21:52;0.90;99.90
27779;DHT22;30234;48.090;11.464;2022-12-07T22:25:53;0.90;99.90
27779;DHT22;30234;48.090;11.464;2022-12-07T22:29:53;0.90;99.90
27779;DHT22;30234;48.090;11.464;2022-12-07T22:33:54;0.90;99.90
27779;DHT22;30234;48.090;11.464;2022-12-07T22:37:55;0.80;99.90
27779;DHT22;30234;48.090;11.464;2022-12-07T22:41:56;0.80;99.90
27779;DHT22;30234;48.090;11.464;2022-12-07T22:45:58;0.70;99.90
27779;DHT22;30234;48.090;11.464;2022-12-07T22:49:59;0.80;99.90
27779;DHT22;30234;48.090;11.464;2022-12-07T22:54:02;0.80;99.90
27779;DHT22;30234;48.090;11.464;2022-12-07T22:58:04;0.70;99.90
27779;DHT22;30234;48.090;11.464;2022-12-07T23:02:05;0.80;99.90
27779;DHT22;30234;48.090;11.464;2022-12-07T23:06:07;0.80;99.90
27779;DHT22;30234;48.090;11.464;2022-12-07T23:10:10;0.80;99.90
27779;DHT22;30234;48.090;11.464;2022-12-07T23:14:17;0.80;99.90
27779;DHT22;30234;48.090;11.464;2022-12-07T23:18:20;0.70;99.90
27779;DHT22;30234;48.090;11.464;2022-12-07T23:22:20;0.70;99.90
27779;DHT22;30234;48.090;11.464;2022-12-07T23:26:21;0.80;99.90
27779;DHT22;30234;48.090;11.464;2022-12-07T23:30:22;0.90;99.90
27779;DHT22;30234;48.090;11.464;2022-12-07T23:34:23;1.00;99.90
27779;DHT22;30234;48.090;11.464;2022-12-07T23:38:23;0.90;99.90
27779;DHT22;30234;48.090;11.464;2022-12-07T23:42:24;1.00;99.90
27779;DHT22;30234;48.090;11.464;2022-12-07T23:46:29;1.00;99.90
27779;DHT22;30234;48.090;11.464;2022-12-07T23:50:32;1.00;99.90
27779;DHT22;30234;48.090;11.464;2022-12-07T23:54:33;0.90;99.90
27779;DHT22;30234;48.090;11.464;2022-12-07T23:58:34;0.90;99.90
